sensor_id;sensor_type;location;lat;lon;timestamp;P1;durP1;ratioP1;P2;durP2;ratioP2
57443;SDS011;43289;52.962;6.196;2022-12-05T00:01:57;21.08;;;11.95;;
57443;SDS011;43289;52.962;6.196;2022-12-05T00:04:24;20.40;;;11.90;;
57443;SDS011;43289;52.962;6.196;2022-12-05T00:06:50;19.33;;;12.02;;
57443;SDS011;43289;52.962;6.196;2022-12-05T00:09:16;20.98;;;12.73;;
57443;SDS011;43289;52.962;6.196;2022-12-05T00:11:42;22.45;;;13.43;;
57443;SDS011;43289;52.962;6.196;2022-12-05T00:14:09;21.95;;;12.13;;
57443;SDS011;43289;52.962;6.196;2022-12-05T00:16:36;22.27;;;12.82;;
57443;SDS011;43289;52.962;6.196;2022-12-05T00:19:03;20.52;;;13.00;;
57443;SDS011;43289;52.962;6.196;2022-12-05T00:21:32;21.23;;;13.60;;
57443;SDS011;43289;52.962;6.196;2022-12-05T00:27:20;22.42;;;13.20;;
57443;SDS011;43289;52.962;6.196;2022-12-05T00:29:46;22.17;;;13.80;;
57443;SDS011;43289;52.962;6.196;2022-12-05T00:32:12;22.77;;;14.20;;
57443;SDS011;43289;52.962;6.196;2022-12-05T00:37:24;25.60;;;13.00;;
57443;SDS011;43289;52.962;6.196;2022-12-05T00:39:50;20.38;;;12.77;;
57443;SDS011;43289;52.962;6.196;2022-12-05T00:42:16;25.30;;;13.63;;
57443;SDS011;43289;52.962;6.196;2022-12-05T00:44:42;21.30;;;12.93;;
57443;SDS011;43289;52.962;6.196;2022-12-05T00:47:08;23.13;;;14.45;;
57443;SDS011;43289;52.962;6.196;2022-12-05T00:49:34;19.23;;;13.45;;
57443;SDS011;43289;52.962;6.196;2022-12-05T00:52:00;21.08;;;12.50;;
57443;SDS011;43289;52.962;6.196;2022-12-05T00:54:26;22.60;;;13.23;;
57443;SDS011;43289;52.962;6.196;2022-12-05T00:56:54;23.92;;;13.13;;
57443;SDS011;43289;52.962;6.196;2022-12-05T00:59:22;19.88;;;12.75;;
57443;SDS011;43289;52.962;6.196;2022-12-05T01:01:49;24.33;;;14.38;;
57443;SDS011;43289;52.962;6.196;2022-12-05T01:07:08;22.77;;;12.75;;
57443;SDS011;43289;52.962;6.196;2022-12-05T01:12:20;24.77;;;13.55;;
57443;SDS011;43289;52.962;6.196;2022-12-05T01:14:46;28.40;;;15.15;;
57443;SDS011;43289;52.962;6.196;2022-12-05T01:17:12;23.75;;;13.90;;
57443;SDS011;43289;52.962;6.196;2022-12-05T01:19:38;25.95;;;14.18;;
57443;SDS011;43289;52.962;6.196;2022-12-05T01:22:04;21.08;;;13.70;;
57443;SDS011;43289;52.962;6.196;2022-12-05T01:24:33;23.92;;;14.65;;
57443;SDS011;43289;52.962;6.196;2022-12-05T01:26:59;23.10;;;14.32;;
57443;SDS011;43289;52.962;6.196;2022-12-05T01:29:25;23.58;;;15.20;;
57443;SDS011;43289;52.962;6.196;2022-12-05T01:31:51;26.05;;;14.52;;
57443;SDS011;43289;52.962;6.196;2022-12-05T01:34:17;25.67;;;14.55;;
57443;SDS011;43289;52.962;6.196;2022-12-05T01:36:44;23.17;;;14.50;;
57443;SDS011;43289;52.962;6.196;2022-12-05T01:39:10;27.15;;;15.00;;
57443;SDS011;43289;52.962;6.196;2022-12-05T01:47:07;29.08;;;16.55;;
57443;SDS011;43289;52.962;6.196;2022-12-05T01:49:35;26.10;;;16.15;;
57443;SDS011;43289;52.962;6.196;2022-12-05T01:52:06;25.80;;;15.88;;
57443;SDS011;43289;52.962;6.196;2022-12-05T01:54:34;29.73;;;16.00;;
57443;SDS011;43289;52.962;6.196;2022-12-05T01:57:02;29.50;;;16.38;;
57443;SDS011;43289;52.962;6.196;2022-12-05T01:59:30;30.92;;;16.73;;
57443;SDS011;43289;52.962;6.196;2022-12-05T02:01:57;28.60;;;16.65;;
57443;SDS011;43289;52.962;6.196;2022-12-05T02:04:23;30.70;;;17.27;;
57443;SDS011;43289;52.962;6.196;2022-12-05T02:06:49;29.42;;;17.00;;
57443;SDS011;43289;52.962;6.196;2022-12-05T02:09:15;27.15;;;16.80;;
57443;SDS011;43289;52.962;6.196;2022-12-05T02:11:51;26.77;;;17.55;;
57443;SDS011;43289;52.962;6.196;2022-12-05T02:14:31;26.75;;;15.85;;
57443;SDS011;43289;52.962;6.196;2022-12-05T02:17:17;28.85;;;16.40;;
57443;SDS011;43289;52.962;6.196;2022-12-05T02:19:53;26.48;;;16.55;;
57443;SDS011;43289;52.962;6.196;2022-12-05T02:22:22;29.90;;;17.77;;
57443;SDS011;43289;52.962;6.196;2022-12-05T02:30:21;29.63;;;17.33;;
57443;SDS011;43289;52.962;6.196;2022-12-05T02:32:55;27.35;;;16.45;;
57443;SDS011;43289;52.962;6.196;2022-12-05T02:43:12;30.23;;;15.98;;
57443;SDS011;43289;52.962;6.196;2022-12-05T02:45:40;27.42;;;16.73;;
57443;SDS011;43289;52.962;6.196;2022-12-05T02:48:07;28.83;;;17.35;;
57443;SDS011;43289;52.962;6.196;2022-12-05T02:50:35;28.52;;;16.65;;
57443;SDS011;43289;52.962;6.196;2022-12-05T02:53:03;28.85;;;16.77;;
57443;SDS011;43289;52.962;6.196;2022-12-05T02:55:30;28.50;;;16.45;;
57443;SDS011;43289;52.962;6.196;2022-12-05T02:57:57;29.30;;;16.35;;
57443;SDS011;43289;52.962;6.196;2022-12-05T03:00:25;28.77;;;16.98;;
57443;SDS011;43289;52.962;6.196;2022-12-05T03:02:52;30.13;;;16.90;;
57443;SDS011;43289;52.962;6.196;2022-12-05T03:05:21;31.35;;;18.48;;
57443;SDS011;43289;52.962;6.196;2022-12-05T03:07:49;26.77;;;15.45;;
57443;SDS011;43289;52.962;6.196;2022-12-05T03:10:17;32.78;;;17.90;;
57443;SDS011;43289;52.962;6.196;2022-12-05T03:12:47;24.60;;;16.00;;
57443;SDS011;43289;52.962;6.196;2022-12-05T03:15:24;24.10;;;15.73;;
57443;SDS011;43289;52.962;6.196;2022-12-05T03:20:25;25.02;;;16.30;;
57443;SDS011;43289;52.962;6.196;2022-12-05T03:22:53;27.85;;;15.18;;
57443;SDS011;43289;52.962;6.196;2022-12-05T03:25:34;25.60;;;14.45;;
57443;SDS011;43289;52.962;6.196;2022-12-05T03:28:06;23.77;;;15.00;;
57443;SDS011;43289;52.962;6.196;2022-12-05T03:30:36;22.73;;;13.93;;
57443;SDS011;43289;52.962;6.196;2022-12-05T03:38:12;19.40;;;12.73;;
57443;SDS011;43289;52.962;6.196;2022-12-05T03:40:56;23.50;;;12.43;;
57443;SDS011;43289;52.962;6.196;2022-12-05T03:44:13;20.95;;;11.95;;
57443;SDS011;43289;52.962;6.196;2022-12-05T03:51:15;17.80;;;11.45;;
57443;SDS011;43289;52.962;6.196;2022-12-05T03:53:42;18.60;;;11.30;;
57443;SDS011;43289;52.962;6.196;2022-12-05T03:56:11;18.50;;;11.02;;
57443;SDS011;43289;52.962;6.196;2022-12-05T03:58:43;16.42;;;11.52;;
57443;SDS011;43289;52.962;6.196;2022-12-05T04:01:11;15.27;;;9.73;;
57443;SDS011;43289;52.962;6.196;2022-12-05T04:03:55;19.48;;;10.07;;
57443;SDS011;43289;52.962;6.196;2022-12-05T04:06:24;16.02;;;10.25;;
57443;SDS011;43289;52.962;6.196;2022-12-05T04:08:59;14.95;;;9.25;;
57443;SDS011;43289;52.962;6.196;2022-12-05T04:11:27;16.35;;;9.43;;
57443;SDS011;43289;52.962;6.196;2022-12-05T04:13:56;14.38;;;9.38;;
57443;SDS011;43289;52.962;6.196;2022-12-05T04:16:27;14.32;;;9.32;;
57443;SDS011;43289;52.962;6.196;2022-12-05T04:22:20;12.30;;;8.60;;
57443;SDS011;43289;52.962;6.196;2022-12-05T04:24:47;13.35;;;9.30;;
57443;SDS011;43289;52.962;6.196;2022-12-05T04:30:19;14.68;;;9.52;;
57443;SDS011;43289;52.962;6.196;2022-12-05T04:35:27;16.73;;;9.40;;
57443;SDS011;43289;52.962;6.196;2022-12-05T04:38:06;12.48;;;7.95;;
57443;SDS011;43289;52.962;6.196;2022-12-05T04:40:45;16.40;;;9.00;;
57443;SDS011;43289;52.962;6.196;2022-12-05T04:43:13;13.02;;;8.20;;
57443;SDS011;43289;52.962;6.196;2022-12-05T04:45:39;16.52;;;8.60;;
57443;SDS011;43289;52.962;6.196;2022-12-05T04:48:08;13.13;;;7.32;;
57443;SDS011;43289;52.962;6.196;2022-12-05T04:50:35;12.68;;;8.55;;
57443;SDS011;43289;52.962;6.196;2022-12-05T04:53:02;11.40;;;7.72;;
57443;SDS011;43289;52.962;6.196;2022-12-05T04:55:29;10.55;;;7.50;;
57443;SDS011;43289;52.962;6.196;2022-12-05T04:57:59;14.43;;;7.70;;
57443;SDS011;43289;52.962;6.196;2022-12-05T05:00:26;12.88;;;7.45;;
57443;SDS011;43289;52.962;6.196;2022-12-05T05:03:16;13.45;;;6.97;;
57443;SDS011;43289;52.962;6.196;2022-12-05T05:05:39;10.90;;;7.10;;
57443;SDS011;43289;52.962;6.196;2022-12-05T05:08:15;13.82;;;7.60;;
57443;SDS011;43289;52.962;6.196;2022-12-05T05:10:44;11.07;;;7.28;;
57443;SDS011;43289;52.962;6.196;2022-12-05T05:13:13;12.63;;;6.93;;
57443;SDS011;43289;52.962;6.196;2022-12-05T05:15:39;12.27;;;7.43;;
57443;SDS011;43289;52.962;6.196;2022-12-05T05:18:05;11.57;;;6.82;;
57443;SDS011;43289;52.962;6.196;2022-12-05T05:20:31;13.18;;;7.70;;
57443;SDS011;43289;52.962;6.196;2022-12-05T05:22:57;10.63;;;7.47;;
57443;SDS011;43289;52.962;6.196;2022-12-05T05:25:24;12.15;;;6.80;;
57443;SDS011;43289;52.962;6.196;2022-12-05T05:27:51;10.80;;;6.95;;
57443;SDS011;43289;52.962;6.196;2022-12-05T05:30:18;10.65;;;7.03;;
57443;SDS011;43289;52.962;6.196;2022-12-05T05:32:44;11.05;;;6.72;;
57443;SDS011;43289;52.962;6.196;2022-12-05T05:35:11;12.93;;;6.85;;
57443;SDS011;43289;52.962;6.196;2022-12-05T05:37:37;12.20;;;7.20;;
57443;SDS011;43289;52.962;6.196;2022-12-05T05:40:04;10.18;;;6.70;;
57443;SDS011;43289;52.962;6.196;2022-12-05T05:42:31;11.27;;;6.82;;
57443;SDS011;43289;52.962;6.196;2022-12-05T05:44:57;12.82;;;7.80;;
57443;SDS011;43289;52.962;6.196;2022-12-05T05:47:35;13.70;;;7.60;;
57443;SDS011;43289;52.962;6.196;2022-12-05T05:50:01;13.70;;;7.05;;
57443;SDS011;43289;52.962;6.196;2022-12-05T05:52:27;14.57;;;7.35;;
57443;SDS011;43289;52.962;6.196;2022-12-05T05:57:40;13.63;;;7.05;;
57443;SDS011;43289;52.962;6.196;2022-12-05T06:00:06;12.35;;;7.57;;
57443;SDS011;43289;52.962;6.196;2022-12-05T06:02:33;11.68;;;7.15;;
57443;SDS011;43289;52.962;6.196;2022-12-05T06:04:59;14.80;;;8.23;;
57443;SDS011;43289;52.962;6.196;2022-12-05T06:07:25;11.35;;;7.30;;
57443;SDS011;43289;52.962;6.196;2022-12-05T06:09:51;15.40;;;8.23;;
57443;SDS011;43289;52.962;6.196;2022-12-05T06:12:17;20.98;;;8.10;;
57443;SDS011;43289;52.962;6.196;2022-12-05T06:14:43;12.50;;;7.80;;
57443;SDS011;43289;52.962;6.196;2022-12-05T06:17:11;11.02;;;7.32;;
57443;SDS011;43289;52.962;6.196;2022-12-05T06:19:37;12.02;;;7.32;;
57443;SDS011;43289;52.962;6.196;2022-12-05T06:22:03;12.38;;;7.88;;
57443;SDS011;43289;52.962;6.196;2022-12-05T06:24:29;13.18;;;7.43;;
57443;SDS011;43289;52.962;6.196;2022-12-05T06:26:55;12.00;;;7.80;;
57443;SDS011;43289;52.962;6.196;2022-12-05T06:29:21;12.00;;;6.88;;
57443;SDS011;43289;52.962;6.196;2022-12-05T06:31:47;12.57;;;7.60;;
57443;SDS011;43289;52.962;6.196;2022-12-05T06:34:13;10.55;;;6.57;;
57443;SDS011;43289;52.962;6.196;2022-12-05T06:36:39;11.18;;;6.85;;
57443;SDS011;43289;52.962;6.196;2022-12-05T06:39:05;8.90;;;6.30;;
57443;SDS011;43289;52.962;6.196;2022-12-05T06:41:47;11.05;;;7.00;;
57443;SDS011;43289;52.962;6.196;2022-12-05T06:44:13;12.27;;;7.03;;
57443;SDS011;43289;52.962;6.196;2022-12-05T06:46:39;9.57;;;6.50;;
57443;SDS011;43289;52.962;6.196;2022-12-05T06:49:05;9.73;;;6.85;;
57443;SDS011;43289;52.962;6.196;2022-12-05T06:51:31;12.90;;;6.13;;
57443;SDS011;43289;52.962;6.196;2022-12-05T06:53:56;11.68;;;7.15;;
57443;SDS011;43289;52.962;6.196;2022-12-05T06:56:22;10.75;;;7.07;;
57443;SDS011;43289;52.962;6.196;2022-12-05T06:58:49;14.40;;;7.38;;
57443;SDS011;43289;52.962;6.196;2022-12-05T07:01:19;10.18;;;6.45;;
57443;SDS011;43289;52.962;6.196;2022-12-05T07:04:05;12.23;;;7.40;;
57443;SDS011;43289;52.962;6.196;2022-12-05T07:06:31;10.15;;;6.65;;
57443;SDS011;43289;52.962;6.196;2022-12-05T07:08:57;13.07;;;7.03;;
57443;SDS011;43289;52.962;6.196;2022-12-05T07:11:24;10.32;;;6.75;;
57443;SDS011;43289;52.962;6.196;2022-12-05T07:13:50;11.27;;;7.28;;
57443;SDS011;43289;52.962;6.196;2022-12-05T07:16:21;12.10;;;7.20;;
57443;SDS011;43289;52.962;6.196;2022-12-05T07:18:47;13.88;;;7.20;;
57443;SDS011;43289;52.962;6.196;2022-12-05T07:21:14;10.25;;;6.45;;
57443;SDS011;43289;52.962;6.196;2022-12-05T07:27:12;12.35;;;7.55;;
57443;SDS011;43289;52.962;6.196;2022-12-05T07:29:38;11.73;;;6.72;;
57443;SDS011;43289;52.962;6.196;2022-12-05T07:32:05;12.40;;;6.60;;
57443;SDS011;43289;52.962;6.196;2022-12-05T07:34:34;9.82;;;6.70;;
57443;SDS011;43289;52.962;6.196;2022-12-05T07:37:00;11.80;;;7.10;;
57443;SDS011;43289;52.962;6.196;2022-12-05T07:39:26;12.18;;;7.10;;
57443;SDS011;43289;52.962;6.196;2022-12-05T07:41:52;12.65;;;7.13;;
57443;SDS011;43289;52.962;6.196;2022-12-05T07:44:18;14.85;;;7.53;;
57443;SDS011;43289;52.962;6.196;2022-12-05T07:46:44;10.02;;;6.50;;
57443;SDS011;43289;52.962;6.196;2022-12-05T07:51:55;15.70;;;8.00;;
57443;SDS011;43289;52.962;6.196;2022-12-05T07:54:22;13.27;;;7.68;;
57443;SDS011;43289;52.962;6.196;2022-12-05T07:56:48;14.13;;;8.35;;
57443;SDS011;43289;52.962;6.196;2022-12-05T07:59:14;15.13;;;7.95;;
57443;SDS011;43289;52.962;6.196;2022-12-05T08:04:17;15.57;;;7.43;;
57443;SDS011;43289;52.962;6.196;2022-12-05T08:06:43;13.75;;;8.30;;
57443;SDS011;43289;52.962;6.196;2022-12-05T08:09:12;14.27;;;7.70;;
57443;SDS011;43289;52.962;6.196;2022-12-05T08:11:38;12.82;;;7.72;;
57443;SDS011;43289;52.962;6.196;2022-12-05T08:14:04;15.93;;;8.02;;
57443;SDS011;43289;52.962;6.196;2022-12-05T08:16:33;16.00;;;9.20;;
57443;SDS011;43289;52.962;6.196;2022-12-05T08:18:59;14.98;;;8.65;;
57443;SDS011;43289;52.962;6.196;2022-12-05T08:21:26;14.38;;;9.52;;
57443;SDS011;43289;52.962;6.196;2022-12-05T08:23:53;12.00;;;7.32;;
57443;SDS011;43289;52.962;6.196;2022-12-05T08:32:07;17.50;;;9.20;;
57443;SDS011;43289;52.962;6.196;2022-12-05T08:34:33;14.55;;;7.78;;
57443;SDS011;43289;52.962;6.196;2022-12-05T08:36:59;15.18;;;8.38;;
57443;SDS011;43289;52.962;6.196;2022-12-05T08:39:33;16.08;;;8.48;;
57443;SDS011;43289;52.962;6.196;2022-12-05T08:42:00;19.17;;;9.38;;
57443;SDS011;43289;52.962;6.196;2022-12-05T08:44:26;18.05;;;9.30;;
57443;SDS011;43289;52.962;6.196;2022-12-05T08:46:52;15.57;;;8.60;;
57443;SDS011;43289;52.962;6.196;2022-12-05T08:49:18;20.70;;;9.52;;
57443;SDS011;43289;52.962;6.196;2022-12-05T08:51:44;17.73;;;8.57;;
57443;SDS011;43289;52.962;6.196;2022-12-05T08:54:11;20.00;;;8.88;;
57443;SDS011;43289;52.962;6.196;2022-12-05T08:56:37;19.30;;;9.18;;
57443;SDS011;43289;52.962;6.196;2022-12-05T08:59:03;16.52;;;8.45;;
57443;SDS011;43289;52.962;6.196;2022-12-05T09:01:29;15.00;;;8.48;;
57443;SDS011;43289;52.962;6.196;2022-12-05T09:03:57;14.02;;;8.35;;
57443;SDS011;43289;52.962;6.196;2022-12-05T09:06:24;14.98;;;7.60;;
57443;SDS011;43289;52.962;6.196;2022-12-05T09:08:54;16.75;;;8.60;;
57443;SDS011;43289;52.962;6.196;2022-12-05T09:11:21;12.45;;;7.60;;
57443;SDS011;43289;52.962;6.196;2022-12-05T09:13:51;13.85;;;8.25;;
57443;SDS011;43289;52.962;6.196;2022-12-05T09:19:14;17.15;;;8.07;;
57443;SDS011;43289;52.962;6.196;2022-12-05T09:21:41;18.00;;;8.88;;
57443;SDS011;43289;52.962;6.196;2022-12-05T09:26:55;16.58;;;7.22;;
57443;SDS011;43289;52.962;6.196;2022-12-05T09:29:21;13.57;;;7.30;;
57443;SDS011;43289;52.962;6.196;2022-12-05T09:31:49;17.52;;;7.45;;
57443;SDS011;43289;52.962;6.196;2022-12-05T09:34:17;11.80;;;7.03;;
57443;SDS011;43289;52.962;6.196;2022-12-05T09:36:44;15.30;;;7.85;;
57443;SDS011;43289;52.962;6.196;2022-12-05T09:50:24;15.20;;;7.50;;
57443;SDS011;43289;52.962;6.196;2022-12-05T09:55:18;18.67;;;8.15;;
57443;SDS011;43289;52.962;6.196;2022-12-05T09:57:51;15.07;;;8.02;;
57443;SDS011;43289;52.962;6.196;2022-12-05T10:00:18;11.43;;;7.35;;
57443;SDS011;43289;52.962;6.196;2022-12-05T10:02:46;17.67;;;7.57;;
57443;SDS011;43289;52.962;6.196;2022-12-05T10:05:20;14.05;;;8.50;;
57443;SDS011;43289;52.962;6.196;2022-12-05T10:07:51;13.75;;;7.85;;
57443;SDS011;43289;52.962;6.196;2022-12-05T10:10:30;13.05;;;7.65;;
57443;SDS011;43289;52.962;6.196;2022-12-05T10:15:56;16.10;;;9.80;;
57443;SDS011;43289;52.962;6.196;2022-12-05T10:18:39;19.52;;;9.48;;
57443;SDS011;43289;52.962;6.196;2022-12-05T10:21:20;16.83;;;8.80;;
57443;SDS011;43289;52.962;6.196;2022-12-05T10:27:07;17.83;;;9.18;;
57443;SDS011;43289;52.962;6.196;2022-12-05T10:29:37;18.65;;;9.05;;
57443;SDS011;43289;52.962;6.196;2022-12-05T10:34:51;18.60;;;9.18;;
57443;SDS011;43289;52.962;6.196;2022-12-05T10:37:19;20.30;;;9.73;;
57443;SDS011;43289;52.962;6.196;2022-12-05T10:39:47;14.90;;;8.77;;
57443;SDS011;43289;52.962;6.196;2022-12-05T10:44:42;18.10;;;10.45;;
57443;SDS011;43289;52.962;6.196;2022-12-05T10:47:20;19.23;;;10.93;;
57443;SDS011;43289;52.962;6.196;2022-12-05T10:49:46;17.77;;;10.82;;
57443;SDS011;43289;52.962;6.196;2022-12-05T10:52:13;16.48;;;9.73;;
57443;SDS011;43289;52.962;6.196;2022-12-05T10:54:42;23.60;;;10.77;;
57443;SDS011;43289;52.962;6.196;2022-12-05T10:57:26;20.02;;;9.75;;
57443;SDS011;43289;52.962;6.196;2022-12-05T10:59:54;20.67;;;9.48;;
57443;SDS011;43289;52.962;6.196;2022-12-05T11:02:25;15.60;;;8.80;;
57443;SDS011;43289;52.962;6.196;2022-12-05T11:04:51;16.10;;;9.57;;
57443;SDS011;43289;52.962;6.196;2022-12-05T11:07:26;14.63;;;8.45;;
57443;SDS011;43289;52.962;6.196;2022-12-05T11:09:54;13.88;;;8.52;;
57443;SDS011;43289;52.962;6.196;2022-12-05T11:15:08;16.65;;;8.88;;
57443;SDS011;43289;52.962;6.196;2022-12-05T11:17:45;16.25;;;9.02;;
57443;SDS011;43289;52.962;6.196;2022-12-05T11:22:40;12.93;;;7.53;;
57443;SDS011;43289;52.962;6.196;2022-12-05T11:27:51;12.13;;;7.20;;
57443;SDS011;43289;52.962;6.196;2022-12-05T11:30:18;17.55;;;7.55;;
57443;SDS011;43289;52.962;6.196;2022-12-05T11:32:44;10.30;;;6.70;;
57443;SDS011;43289;52.962;6.196;2022-12-05T11:37:38;12.07;;;6.20;;
57443;SDS011;43289;52.962;6.196;2022-12-05T11:40:13;9.20;;;6.03;;
57443;SDS011;43289;52.962;6.196;2022-12-05T11:56:36;12.60;;;6.80;;
57443;SDS011;43289;52.962;6.196;2022-12-05T12:01:51;12.60;;;6.13;;
57443;SDS011;43289;52.962;6.196;2022-12-05T12:04:27;11.48;;;6.22;;
57443;SDS011;43289;52.962;6.196;2022-12-05T12:14:41;12.32;;;6.45;;
57443;SDS011;43289;52.962;6.196;2022-12-05T12:17:19;8.82;;;5.78;;
57443;SDS011;43289;52.962;6.196;2022-12-05T12:19:53;10.85;;;5.80;;
57443;SDS011;43289;52.962;6.196;2022-12-05T12:22:37;12.20;;;6.20;;
57443;SDS011;43289;52.962;6.196;2022-12-05T12:28:16;12.10;;;6.68;;
57443;SDS011;43289;52.962;6.196;2022-12-05T12:35:50;10.82;;;6.25;;
57443;SDS011;43289;52.962;6.196;2022-12-05T12:38:32;12.40;;;6.53;;
57443;SDS011;43289;52.962;6.196;2022-12-05T12:44:32;9.95;;;6.63;;
57443;SDS011;43289;52.962;6.196;2022-12-05T12:47:03;13.98;;;6.47;;
57443;SDS011;43289;52.962;6.196;2022-12-05T12:49:43;13.32;;;6.60;;
57443;SDS011;43289;52.962;6.196;2022-12-05T12:52:15;10.02;;;5.57;;
57443;SDS011;43289;52.962;6.196;2022-12-05T12:54:55;9.68;;;6.03;;
57443;SDS011;43289;52.962;6.196;2022-12-05T12:57:27;11.23;;;5.97;;
57443;SDS011;43289;52.962;6.196;2022-12-05T13:00:04;9.82;;;5.45;;
57443;SDS011;43289;52.962;6.196;2022-12-05T13:02:36;11.27;;;5.32;;
57443;SDS011;43289;52.962;6.196;2022-12-05T13:05:06;9.45;;;5.35;;
57443;SDS011;43289;52.962;6.196;2022-12-05T13:07:46;8.88;;;5.38;;
57443;SDS011;43289;52.962;6.196;2022-12-05T13:12:49;10.85;;;4.82;;
57443;SDS011;43289;52.962;6.196;2022-12-05T13:15:17;13.27;;;5.63;;
57443;SDS011;43289;52.962;6.196;2022-12-05T13:17:45;10.15;;;5.95;;
57443;SDS011;43289;52.962;6.196;2022-12-05T13:20:16;11.43;;;4.72;;
57443;SDS011;43289;52.962;6.196;2022-12-05T13:22:43;9.00;;;5.28;;
57443;SDS011;43289;52.962;6.196;2022-12-05T13:25:13;8.13;;;4.97;;
57443;SDS011;43289;52.962;6.196;2022-12-05T13:27:39;11.07;;;5.13;;
57443;SDS011;43289;52.962;6.196;2022-12-05T13:30:14;11.55;;;5.60;;
57443;SDS011;43289;52.962;6.196;2022-12-05T13:32:42;6.47;;;4.05;;
57443;SDS011;43289;52.962;6.196;2022-12-05T13:35:09;8.68;;;4.28;;
57443;SDS011;43289;52.962;6.196;2022-12-05T13:37:35;10.70;;;6.00;;
57443;SDS011;43289;52.962;6.196;2022-12-05T13:40:24;10.32;;;5.13;;
57443;SDS011;43289;52.962;6.196;2022-12-05T13:43:11;7.78;;;4.05;;
57443;SDS011;43289;52.962;6.196;2022-12-05T13:45:38;7.85;;;4.22;;
57443;SDS011;43289;52.962;6.196;2022-12-05T13:49:05;8.55;;;4.72;;
57443;SDS011;43289;52.962;6.196;2022-12-05T13:51:04;10.13;;;5.35;;
57443;SDS011;43289;52.962;6.196;2022-12-05T13:53:36;11.50;;;5.03;;
57443;SDS011;43289;52.962;6.196;2022-12-05T13:58:51;7.97;;;4.93;;
57443;SDS011;43289;52.962;6.196;2022-12-05T14:04:17;8.90;;;5.10;;
57443;SDS011;43289;52.962;6.196;2022-12-05T14:17:14;14.38;;;5.93;;
57443;SDS011;43289;52.962;6.196;2022-12-05T14:19:51;8.43;;;5.50;;
57443;SDS011;43289;52.962;6.196;2022-12-05T14:22:22;8.88;;;5.50;;
57443;SDS011;43289;52.962;6.196;2022-12-05T14:24:54;10.60;;;5.85;;
57443;SDS011;43289;52.962;6.196;2022-12-05T14:27:34;9.65;;;5.25;;
57443;SDS011;43289;52.962;6.196;2022-12-05T14:32:36;8.98;;;4.68;;
57443;SDS011;43289;52.962;6.196;2022-12-05T14:35:11;7.75;;;4.43;;
57443;SDS011;43289;52.962;6.196;2022-12-05T14:37:49;8.05;;;5.10;;
57443;SDS011;43289;52.962;6.196;2022-12-05T14:46:02;8.05;;;4.50;;
57443;SDS011;43289;52.962;6.196;2022-12-05T14:48:30;10.88;;;5.05;;
57443;SDS011;43289;52.962;6.196;2022-12-05T14:50:57;9.00;;;4.10;;
57443;SDS011;43289;52.962;6.196;2022-12-05T14:53:25;9.18;;;3.92;;
57443;SDS011;43289;52.962;6.196;2022-12-05T14:55:55;7.57;;;4.25;;
57443;SDS011;43289;52.962;6.196;2022-12-05T15:01:04;13.75;;;8.60;;
57443;SDS011;43289;52.962;6.196;2022-12-05T15:03:33;12.02;;;8.30;;
57443;SDS011;43289;52.962;6.196;2022-12-05T15:06:00;9.85;;;5.38;;
57443;SDS011;43289;52.962;6.196;2022-12-05T15:08:37;9.68;;;4.32;;
57443;SDS011;43289;52.962;6.196;2022-12-05T15:11:04;9.27;;;4.25;;
57443;SDS011;43289;52.962;6.196;2022-12-05T15:13:30;9.63;;;5.03;;
57443;SDS011;43289;52.962;6.196;2022-12-05T15:16:05;10.75;;;4.78;;
57443;SDS011;43289;52.962;6.196;2022-12-05T15:18:37;10.38;;;5.22;;
57443;SDS011;43289;52.962;6.196;2022-12-05T15:21:08;7.70;;;4.85;;
57443;SDS011;43289;52.962;6.196;2022-12-05T15:26:22;11.52;;;5.40;;
57443;SDS011;43289;52.962;6.196;2022-12-05T15:28:56;9.90;;;5.10;;
57443;SDS011;43289;52.962;6.196;2022-12-05T15:31:30;10.88;;;4.45;;
57443;SDS011;43289;52.962;6.196;2022-12-05T15:33:59;10.30;;;4.65;;
57443;SDS011;43289;52.962;6.196;2022-12-05T15:36:28;10.93;;;4.53;;
57443;SDS011;43289;52.962;6.196;2022-12-05T15:38:57;7.95;;;4.68;;
57443;SDS011;43289;52.962;6.196;2022-12-05T15:41:23;9.27;;;5.05;;
57443;SDS011;43289;52.962;6.196;2022-12-05T15:43:55;9.45;;;5.05;;
57443;SDS011;43289;52.962;6.196;2022-12-05T15:46:23;10.02;;;4.45;;
57443;SDS011;43289;52.962;6.196;2022-12-05T15:48:53;6.88;;;4.00;;
57443;SDS011;43289;52.962;6.196;2022-12-05T15:51:20;9.32;;;4.43;;
57443;SDS011;43289;52.962;6.196;2022-12-05T15:53:49;8.90;;;4.47;;
57443;SDS011;43289;52.962;6.196;2022-12-05T15:58:49;7.32;;;4.55;;
57443;SDS011;43289;52.962;6.196;2022-12-05T16:01:24;9.85;;;5.00;;
57443;SDS011;43289;52.962;6.196;2022-12-05T16:07:02;7.75;;;4.72;;
57443;SDS011;43289;52.962;6.196;2022-12-05T16:11:28;9.82;;;5.13;;
57443;SDS011;43289;52.962;6.196;2022-12-05T16:13:55;11.55;;;6.32;;
57443;SDS011;43289;52.962;6.196;2022-12-05T16:16:23;12.25;;;6.43;;
57443;SDS011;43289;52.962;6.196;2022-12-05T16:18:53;11.40;;;5.00;;
57443;SDS011;43289;52.962;6.196;2022-12-05T16:21:27;9.95;;;5.00;;
57443;SDS011;43289;52.962;6.196;2022-12-05T16:27:28;10.63;;;6.90;;
57443;SDS011;43289;52.962;6.196;2022-12-05T16:32:35;11.45;;;5.90;;
57443;SDS011;43289;52.962;6.196;2022-12-05T16:35:01;7.65;;;5.10;;
57443;SDS011;43289;52.962;6.196;2022-12-05T16:37:28;12.48;;;6.15;;
57443;SDS011;43289;52.962;6.196;2022-12-05T16:39:56;8.52;;;4.93;;
57443;SDS011;43289;52.962;6.196;2022-12-05T16:42:26;13.27;;;7.18;;
57443;SDS011;43289;52.962;6.196;2022-12-05T16:44:57;13.70;;;7.70;;
57443;SDS011;43289;52.962;6.196;2022-12-05T16:53:00;11.27;;;6.68;;
57443;SDS011;43289;52.962;6.196;2022-12-05T16:55:26;10.35;;;6.30;;
57443;SDS011;43289;52.962;6.196;2022-12-05T16:57:52;13.07;;;7.55;;
57443;SDS011;43289;52.962;6.196;2022-12-05T17:00:18;11.25;;;7.15;;
57443;SDS011;43289;52.962;6.196;2022-12-05T17:02:44;11.45;;;5.82;;
57443;SDS011;43289;52.962;6.196;2022-12-05T17:05:14;11.77;;;6.97;;
57443;SDS011;43289;52.962;6.196;2022-12-05T17:07:40;11.65;;;6.65;;
57443;SDS011;43289;52.962;6.196;2022-12-05T17:10:06;10.55;;;6.22;;
57443;SDS011;43289;52.962;6.196;2022-12-05T17:12:32;11.38;;;6.05;;
57443;SDS011;43289;52.962;6.196;2022-12-05T17:14:58;15.82;;;7.82;;
57443;SDS011;43289;52.962;6.196;2022-12-05T17:17:24;10.27;;;6.35;;
57443;SDS011;43289;52.962;6.196;2022-12-05T17:20:09;11.85;;;6.07;;
57443;SDS011;43289;52.962;6.196;2022-12-05T17:22:36;15.95;;;6.93;;
57443;SDS011;43289;52.962;6.196;2022-12-05T17:25:04;13.57;;;6.38;;
57443;SDS011;43289;52.962;6.196;2022-12-05T17:27:36;18.05;;;6.60;;
57443;SDS011;43289;52.962;6.196;2022-12-05T17:30:02;11.32;;;6.22;;
57443;SDS011;43289;52.962;6.196;2022-12-05T17:32:28;25.38;;;8.32;;
57443;SDS011;43289;52.962;6.196;2022-12-05T17:34:54;14.90;;;6.97;;
57443;SDS011;43289;52.962;6.196;2022-12-05T17:37:20;11.68;;;6.57;;
57443;SDS011;43289;52.962;6.196;2022-12-05T17:39:47;12.35;;;6.88;;
57443;SDS011;43289;52.962;6.196;2022-12-05T17:42:13;13.68;;;6.18;;
57443;SDS011;43289;52.962;6.196;2022-12-05T17:44:39;14.18;;;7.07;;
57443;SDS011;43289;52.962;6.196;2022-12-05T17:47:07;13.30;;;7.28;;
57443;SDS011;43289;52.962;6.196;2022-12-05T17:49:33;14.35;;;6.75;;
57443;SDS011;43289;52.962;6.196;2022-12-05T17:51:59;15.68;;;6.93;;
57443;SDS011;43289;52.962;6.196;2022-12-05T17:54:29;12.07;;;6.30;;
57443;SDS011;43289;52.962;6.196;2022-12-05T17:56:55;11.13;;;6.22;;
57443;SDS011;43289;52.962;6.196;2022-12-05T17:59:21;13.07;;;6.40;;
57443;SDS011;43289;52.962;6.196;2022-12-05T18:01:47;15.02;;;7.30;;
57443;SDS011;43289;52.962;6.196;2022-12-05T18:07:11;12.65;;;6.47;;